sensor_id;sensor_type;location;lat;lon;timestamp;temperature;humidity
13198;DHT22;6664;52.514;13.440;2022-07-01T00:02:05;21.10;99.90
13198;DHT22;6664;52.514;13.440;2022-07-01T00:04:33;21.00;99.90
13198;DHT22;6664;52.514;13.440;2022-07-01T00:07:00;21.00;99.90
13198;DHT22;6664;52.514;13.440;2022-07-01T00:09:29;21.00;99.90
13198;DHT22;6664;52.514;13.440;2022-07-01T00:11:56;21.00;99.90
13198;DHT22;6664;52.514;13.440;2022-07-01T00:14:23;20.90;99.90
13198;DHT22;6664;52.514;13.440;2022-07-01T00:16:52;20.90;99.90
13198;DHT22;6664;52.514;13.440;2022-07-01T00:19:19;20.90;99.90
13198;DHT22;6664;52.514;13.440;2022-07-01T00:21:46;20.90;99.90
13198;DHT22;6664;52.514;13.440;2022-07-01T00:24:13;20.80;99.90
13198;DHT22;6664;52.514;13.440;2022-07-01T00:26:40;20.80;99.90
13198;DHT22;6664;52.514;13.440;2022-07-01T00:29:09;20.70;99.90
13198;DHT22;6664;52.514;13.440;2022-07-01T00:31:36;20.70;99.90
13198;DHT22;6664;52.514;13.440;2022-07-01T00:34:03;20.60;99.90
13198;DHT22;6664;52.514;13.440;2022-07-01T00:36:32;20.60;99.90
13198;DHT22;6664;52.514;13.440;2022-07-01T00:39:02;20.60;99.90
13198;DHT22;6664;52.514;13.440;2022-07-01T00:41:31;20.60;99.90
13198;DHT22;6664;52.514;13.440;2022-07-01T00:43:58;20.50;99.90
13198;DHT22;6664;52.514;13.440;2022-07-01T00:46:25;20.50;99.90
13198;DHT22;6664;52.514;13.440;2022-07-01T00:48:54;20.50;99.90
13198;DHT22;6664;52.514;13.440;2022-07-01T00:51:21;20.50;99.90
13198;DHT22;6664;52.514;13.440;2022-07-01T00:53:51;20.50;99.90
13198;DHT22;6664;52.514;13.440;2022-07-01T00:56:22;20.40;99.90
13198;DHT22;6664;52.514;13.440;2022-07-01T00:58:55;20.40;99.90
13198;DHT22;6664;52.514;13.440;2022-07-01T01:01:22;20.40;99.90
13198;DHT22;6664;52.514;13.440;2022-07-01T01:03:51;20.40;99.90
13198;DHT22;6664;52.514;13.440;2022-07-01T01:06:20;20.30;99.90
13198;DHT22;6664;52.514;13.440;2022-07-01T01:08:49;20.40;99.90
13198;DHT22;6664;52.514;13.440;2022-07-01T01:11:19;20.30;99.90
13198;DHT22;6664;52.514;13.440;2022-07-01T01:13:46;20.30;99.90
13198;DHT22;6664;52.514;13.440;2022-07-01T01:16:18;20.30;99.90
13198;DHT22;6664;52.514;13.440;2022-07-01T01:18:48;20.30;99.90
13198;DHT22;6664;52.514;13.440;2022-07-01T01:21:18;20.30;99.90
13198;DHT22;6664;52.514;13.440;2022-07-01T01:23:45;20.20;99.90
13198;DHT22;6664;52.514;13.440;2022-07-01T01:26:22;20.20;99.90
13198;DHT22;6664;52.514;13.440;2022-07-01T01:28:51;20.20;99.90
13198;DHT22;6664;52.514;13.440;2022-07-01T01:31:28;20.10;99.90
13198;DHT22;6664;52.514;13.440;2022-07-01T01:33:59;20.20;99.90
13198;DHT22;6664;52.514;13.440;2022-07-01T01:36:27;20.20;99.90
13198;DHT22;6664;52.514;13.440;2022-07-01T01:38:53;20.20;99.90
13198;DHT22;6664;52.514;13.440;2022-07-01T01:41:24;20.20;99.90
13198;DHT22;6664;52.514;13.440;2022-07-01T01:43:53;20.20;99.90
13198;DHT22;6664;52.514;13.440;2022-07-01T01:46:22;20.20;99.90
13198;DHT22;6664;52.514;13.440;2022-07-01T01:48:49;20.20;99.90
13198;DHT22;6664;52.514;13.440;2022-07-01T01:51:16;20.10;99.90
13198;DHT22;6664;52.514;13.440;2022-07-01T01:53:50;20.10;99.90
13198;DHT22;6664;52.514;13.440;2022-07-01T01:56:17;20.10;99.90
13198;DHT22;6664;52.514;13.440;2022-07-01T01:58:43;20.10;99.90
13198;DHT22;6664;52.514;13.440;2022-07-01T02:01:13;20.00;99.90
13198;DHT22;6664;52.514;13.440;2022-07-01T02:03:43;20.00;99.90
13198;DHT22;6664;52.514;13.440;2022-07-01T02:06:11;20.00;99.90
13198;DHT22;6664;52.514;13.440;2022-07-01T02:08:43;20.00;99.90
13198;DHT22;6664;52.514;13.440;2022-07-01T02:11:10;20.00;99.90
13198;DHT22;6664;52.514;13.440;2022-07-01T02:13:37;19.90;99.90
13198;DHT22;6664;52.514;13.440;2022-07-01T02:16:04;20.00;99.90
13198;DHT22;6664;52.514;13.440;2022-07-01T02:18:31;20.00;99.90
13198;DHT22;6664;52.514;13.440;2022-07-01T02:20:59;20.00;99.90
13198;DHT22;6664;52.514;13.440;2022-07-01T02:23:28;20.00;99.90
13198;DHT22;6664;52.514;13.440;2022-07-01T02:25:58;20.00;99.90
13198;DHT22;6664;52.514;13.440;2022-07-01T02:28:24;20.00;99.90
13198;DHT22;6664;52.514;13.440;2022-07-01T02:30:51;20.00;99.90
13198;DHT22;6664;52.514;13.440;2022-07-01T02:33:18;20.00;99.90
13198;DHT22;6664;52.514;13.440;2022-07-01T02:35:45;20.00;99.90
13198;DHT22;6664;52.514;13.440;2022-07-01T02:38:15;20.00;99.90
13198;DHT22;6664;52.514;13.440;2022-07-01T02:40:42;19.90;99.90
13198;DHT22;6664;52.514;13.440;2022-07-01T02:43:09;19.90;99.90
13198;DHT22;6664;52.514;13.440;2022-07-01T02:45:37;20.00;99.90
13198;DHT22;6664;52.514;13.440;2022-07-01T02:48:04;20.00;99.90
13198;DHT22;6664;52.514;13.440;2022-07-01T02:50:31;20.00;99.90
13198;DHT22;6664;52.514;13.440;2022-07-01T02:53:00;20.00;99.90
13198;DHT22;6664;52.514;13.440;2022-07-01T02:55:27;20.10;99.90
13198;DHT22;6664;52.514;13.440;2022-07-01T02:57:56;20.10;99.90
13198;DHT22;6664;52.514;13.440;2022-07-01T03:00:25;20.10;99.90
13198;DHT22;6664;52.514;13.440;2022-07-01T03:02:54;20.10;99.90
13198;DHT22;6664;52.514;13.440;2022-07-01T03:05:22;20.10;99.90
13198;DHT22;6664;52.514;13.440;2022-07-01T03:07:51;20.10;99.90
13198;DHT22;6664;52.514;13.440;2022-07-01T03:10:18;20.20;99.90
13198;DHT22;6664;52.514;13.440;2022-07-01T03:12:47;20.20;99.90
13198;DHT22;6664;52.514;13.440;2022-07-01T03:15:15;20.20;99.90
13198;DHT22;6664;52.514;13.440;2022-07-01T03:17:44;20.20;99.90
13198;DHT22;6664;52.514;13.440;2022-07-01T03:20:13;20.20;99.90
13198;DHT22;6664;52.514;13.440;2022-07-01T03:22:44;20.20;99.90
13198;DHT22;6664;52.514;13.440;2022-07-01T03:25:11;20.30;99.90
13198;DHT22;6664;52.514;13.440;2022-07-01T03:27:43;20.30;99.90
13198;DHT22;6664;52.514;13.440;2022-07-01T03:30:17;20.30;99.90
13198;DHT22;6664;52.514;13.440;2022-07-01T03:32:47;20.30;99.90
13198;DHT22;6664;52.514;13.440;2022-07-01T03:35:14;20.30;99.90
13198;DHT22;6664;52.514;13.440;2022-07-01T03:37:59;20.30;99.90
13198;DHT22;6664;52.514;13.440;2022-07-01T03:40:26;20.40;99.90
13198;DHT22;6664;52.514;13.440;2022-07-01T03:42:55;20.40;99.90
13198;DHT22;6664;52.514;13.440;2022-07-01T03:45:22;20.40;99.90
13198;DHT22;6664;52.514;13.440;2022-07-01T03:47:49;20.40;99.90
13198;DHT22;6664;52.514;13.440;2022-07-01T03:50:21;20.40;99.90
13198;DHT22;6664;52.514;13.440;2022-07-01T03:52:48;20.50;99.90
13198;DHT22;6664;52.514;13.440;2022-07-01T03:55:38;20.50;99.90
13198;DHT22;6664;52.514;13.440;2022-07-01T03:58:05;20.50;99.90
13198;DHT22;6664;52.514;13.440;2022-07-01T04:00:34;20.50;99.90
13198;DHT22;6664;52.514;13.440;2022-07-01T04:03:07;20.50;99.90
13198;DHT22;6664;52.514;13.440;2022-07-01T04:05:37;20.60;99.90
13198;DHT22;6664;52.514;13.440;2022-07-01T04:08:07;20.60;99.90
13198;DHT22;6664;52.514;13.440;2022-07-01T04:10:35;20.60;99.90
13198;DHT22;6664;52.514;13.440;2022-07-01T04:13:03;20.70;99.90
13198;DHT22;6664;52.514;13.440;2022-07-01T04:15:52;20.70;99.90
13198;DHT22;6664;52.514;13.440;2022-07-01T04:18:25;20.80;99.90
13198;DHT22;6664;52.514;13.440;2022-07-01T04:20:52;20.80;99.90
13198;DHT22;6664;52.514;13.440;2022-07-01T04:23:37;20.80;99.90
13198;DHT22;6664;52.514;13.440;2022-07-01T04:26:06;20.90;99.90
13198;DHT22;6664;52.514;13.440;2022-07-01T04:28:54;21.00;99.90
13198;DHT22;6664;52.514;13.440;2022-07-01T04:31:21;21.10;99.90
13198;DHT22;6664;52.514;13.440;2022-07-01T04:33:50;21.20;99.90
13198;DHT22;6664;52.514;13.440;2022-07-01T04:36:19;21.30;99.90
13198;DHT22;6664;52.514;13.440;2022-07-01T04:38:46;21.40;99.90
13198;DHT22;6664;52.514;13.440;2022-07-01T04:41:13;21.40;99.90
13198;DHT22;6664;52.514;13.440;2022-07-01T04:43:58;21.40;99.90
13198;DHT22;6664;52.514;13.440;2022-07-01T04:46:30;21.40;99.90
13198;DHT22;6664;52.514;13.440;2022-07-01T04:48:59;21.40;99.90
13198;DHT22;6664;52.514;13.440;2022-07-01T04:51:27;21.50;99.90
13198;DHT22;6664;52.514;13.440;2022-07-01T04:53:57;21.60;99.90
13198;DHT22;6664;52.514;13.440;2022-07-01T04:56:23;21.60;99.90
13198;DHT22;6664;52.514;13.440;2022-07-01T04:58:53;21.60;99.90
13198;DHT22;6664;52.514;13.440;2022-07-01T05:01:20;21.70;99.90
13198;DHT22;6664;52.514;13.440;2022-07-01T05:03:47;21.70;99.90
13198;DHT22;6664;52.514;13.440;2022-07-01T05:06:14;21.80;99.90
13198;DHT22;6664;52.514;13.440;2022-07-01T05:08:41;21.80;99.90
13198;DHT22;6664;52.514;13.440;2022-07-01T05:11:08;21.90;99.90
13198;DHT22;6664;52.514;13.440;2022-07-01T05:13:35;21.90;99.90
13198;DHT22;6664;52.514;13.440;2022-07-01T05:16:02;21.90;99.90
13198;DHT22;6664;52.514;13.440;2022-07-01T05:18:32;21.90;99.90
13198;DHT22;6664;52.514;13.440;2022-07-01T05:21:17;22.00;99.90
13198;DHT22;6664;52.514;13.440;2022-07-01T05:24:03;22.10;99.90
13198;DHT22;6664;52.514;13.440;2022-07-01T05:26:32;22.20;99.90
13198;DHT22;6664;52.514;13.440;2022-07-01T05:28:59;22.30;99.90
13198;DHT22;6664;52.514;13.440;2022-07-01T05:31:29;22.40;99.90
13198;DHT22;6664;52.514;13.440;2022-07-01T05:33:58;22.70;99.90
13198;DHT22;6664;52.514;13.440;2022-07-01T05:36:30;23.00;99.90
13198;DHT22;6664;52.514;13.440;2022-07-01T05:39:00;23.50;99.90
13198;DHT22;6664;52.514;13.440;2022-07-01T05:41:27;24.00;99.90
13198;DHT22;6664;52.514;13.440;2022-07-01T05:43:57;24.50;99.90
13198;DHT22;6664;52.514;13.440;2022-07-01T05:46:24;24.80;98.40
13198;DHT22;6664;52.514;13.440;2022-07-01T05:48:51;25.00;96.10
13198;DHT22;6664;52.514;13.440;2022-07-01T05:51:17;25.20;93.20
13198;DHT22;6664;52.514;13.440;2022-07-01T05:53:44;25.00;92.00
13198;DHT22;6664;52.514;13.440;2022-07-01T05:56:14;25.20;91.60
13198;DHT22;6664;52.514;13.440;2022-07-01T05:58:41;25.30;90.40
13198;DHT22;6664;52.514;13.440;2022-07-01T06:01:11;25.40;88.80
13198;DHT22;6664;52.514;13.440;2022-07-01T06:03:40;25.40;87.90
13198;DHT22;6664;52.514;13.440;2022-07-01T06:06:08;25.50;86.20
13198;DHT22;6664;52.514;13.440;2022-07-01T06:08:34;25.70;84.40
13198;DHT22;6664;52.514;13.440;2022-07-01T06:11:01;25.80;83.50
13198;DHT22;6664;52.514;13.440;2022-07-01T06:13:30;25.70;83.30
13198;DHT22;6664;52.514;13.440;2022-07-01T06:16:00;25.70;83.40
13198;DHT22;6664;52.514;13.440;2022-07-01T06:18:30;25.50;84.30
13198;DHT22;6664;52.514;13.440;2022-07-01T06:20:58;25.50;84.60
13198;DHT22;6664;52.514;13.440;2022-07-01T06:23:27;25.60;84.30
13198;DHT22;6664;52.514;13.440;2022-07-01T06:25:57;25.90;82.60
13198;DHT22;6664;52.514;13.440;2022-07-01T06:28:23;26.10;81.10
13198;DHT22;6664;52.514;13.440;2022-07-01T06:30:58;26.00;78.50
13198;DHT22;6664;52.514;13.440;2022-07-01T06:33:25;25.90;79.70
13198;DHT22;6664;52.514;13.440;2022-07-01T06:35:56;26.10;79.10
13198;DHT22;6664;52.514;13.440;2022-07-01T06:38:24;26.10;77.10
13198;DHT22;6664;52.514;13.440;2022-07-01T06:40:51;26.00;78.50
13198;DHT22;6664;52.514;13.440;2022-07-01T06:43:36;25.80;78.90
13198;DHT22;6664;52.514;13.440;2022-07-01T06:46:06;25.90;78.20
13198;DHT22;6664;52.514;13.440;2022-07-01T06:48:36;25.90;78.00
13198;DHT22;6664;52.514;13.440;2022-07-01T06:51:05;26.00;77.30
13198;DHT22;6664;52.514;13.440;2022-07-01T06:53:32;26.00;77.10
13198;DHT22;6664;52.514;13.440;2022-07-01T06:55:59;25.90;78.20
13198;DHT22;6664;52.514;13.440;2022-07-01T06:58:27;26.10;77.20
13198;DHT22;6664;52.514;13.440;2022-07-01T07:00:54;26.10;75.60
13198;DHT22;6664;52.514;13.440;2022-07-01T07:03:21;25.80;77.00
13198;DHT22;6664;52.514;13.440;2022-07-01T07:05:48;25.90;77.30
13198;DHT22;6664;52.514;13.440;2022-07-01T07:08:15;26.20;76.80
13198;DHT22;6664;52.514;13.440;2022-07-01T07:10:44;26.30;73.70
13198;DHT22;6664;52.514;13.440;2022-07-01T07:13:11;26.20;75.00
13198;DHT22;6664;52.514;13.440;2022-07-01T07:15:38;26.20;73.60
13198;DHT22;6664;52.514;13.440;2022-07-01T07:18:08;26.40;73.20
13198;DHT22;6664;52.514;13.440;2022-07-01T07:20:37;26.50;72.60
13198;DHT22;6664;52.514;13.440;2022-07-01T07:23:04;26.70;72.90
13198;DHT22;6664;52.514;13.440;2022-07-01T07:25:31;26.60;68.60
13198;DHT22;6664;52.514;13.440;2022-07-01T07:28:01;26.30;68.50
13198;DHT22;6664;52.514;13.440;2022-07-01T07:30:28;26.40;70.00
13198;DHT22;6664;52.514;13.440;2022-07-01T07:32:57;26.20;68.60
13198;DHT22;6664;52.514;13.440;2022-07-01T07:35:27;26.20;69.80
13198;DHT22;6664;52.514;13.440;2022-07-01T07:37:54;25.80;71.10
13198;DHT22;6664;52.514;13.440;2022-07-01T07:40:21;25.90;71.50
13198;DHT22;6664;52.514;13.440;2022-07-01T07:42:52;25.90;69.70
13198;DHT22;6664;52.514;13.440;2022-07-01T07:45:18;25.80;68.10
13198;DHT22;6664;52.514;13.440;2022-07-01T07:47:48;26.00;67.10
13198;DHT22;6664;52.514;13.440;2022-07-01T07:50:23;26.10;63.90
13198;DHT22;6664;52.514;13.440;2022-07-01T07:52:50;26.20;61.90
13198;DHT22;6664;52.514;13.440;2022-07-01T07:55:21;26.30;61.80
13198;DHT22;6664;52.514;13.440;2022-07-01T07:57:51;26.20;61.00
13198;DHT22;6664;52.514;13.440;2022-07-01T08:00:20;26.10;62.10
13198;DHT22;6664;52.514;13.440;2022-07-01T08:02:49;26.30;61.60
13198;DHT22;6664;52.514;13.440;2022-07-01T08:05:16;26.30;63.00
13198;DHT22;6664;52.514;13.440;2022-07-01T08:07:43;26.70;61.50
13198;DHT22;6664;52.514;13.440;2022-07-01T08:10:12;27.00;60.30
13198;DHT22;6664;52.514;13.440;2022-07-01T08:12:39;27.20;58.70
13198;DHT22;6664;52.514;13.440;2022-07-01T08:15:07;27.40;57.70
13198;DHT22;6664;52.514;13.440;2022-07-01T08:17:36;27.60;56.50
13198;DHT22;6664;52.514;13.440;2022-07-01T08:20:06;27.40;56.00
13198;DHT22;6664;52.514;13.440;2022-07-01T08:22:33;27.30;56.70
13198;DHT22;6664;52.514;13.440;2022-07-01T08:25:02;27.00;57.10
13198;DHT22;6664;52.514;13.440;2022-07-01T08:27:30;27.40;57.20
13198;DHT22;6664;52.514;13.440;2022-07-01T08:29:57;27.80;55.50
13198;DHT22;6664;52.514;13.440;2022-07-01T08:32:24;28.10;53.80
13198;DHT22;6664;52.514;13.440;2022-07-01T08:34:55;27.80;52.90
13198;DHT22;6664;52.514;13.440;2022-07-01T08:37:22;28.00;52.40
13198;DHT22;6664;52.514;13.440;2022-07-01T08:39:48;27.80;52.00
13198;DHT22;6664;52.514;13.440;2022-07-01T08:42:15;27.80;52.00
13198;DHT22;6664;52.514;13.440;2022-07-01T08:44:43;27.80;52.90
13198;DHT22;6664;52.514;13.440;2022-07-01T08:47:17;27.70;52.30
13198;DHT22;6664;52.514;13.440;2022-07-01T08:49:44;27.60;53.10
13198;DHT22;6664;52.514;13.440;2022-07-01T08:52:12;28.00;52.10
13198;DHT22;6664;52.514;13.440;2022-07-01T08:54:39;28.20;51.40
13198;DHT22;6664;52.514;13.440;2022-07-01T08:57:09;27.90;51.80
13198;DHT22;6664;52.514;13.440;2022-07-01T08:59:36;27.40;52.20
13198;DHT22;6664;52.514;13.440;2022-07-01T09:02:04;27.20;54.10
13198;DHT22;6664;52.514;13.440;2022-07-01T09:04:33;27.10;55.80
13198;DHT22;6664;52.514;13.440;2022-07-01T09:07:05;26.60;57.40
13198;DHT22;6664;52.514;13.440;2022-07-01T09:09:38;26.70;57.80
13198;DHT22;6664;52.514;13.440;2022-07-01T09:12:10;27.20;56.10
13198;DHT22;6664;52.514;13.440;2022-07-01T09:14:37;27.60;55.40
13198;DHT22;6664;52.514;13.440;2022-07-01T09:17:07;27.70;53.30
13198;DHT22;6664;52.514;13.440;2022-07-01T09:19:38;27.50;53.80
13198;DHT22;6664;52.514;13.440;2022-07-01T09:22:12;27.50;53.70
13198;DHT22;6664;52.514;13.440;2022-07-01T09:24:41;27.20;53.70
13198;DHT22;6664;52.514;13.440;2022-07-01T09:27:12;27.10;53.90
13198;DHT22;6664;52.514;13.440;2022-07-01T09:29:46;27.40;54.30
13198;DHT22;6664;52.514;13.440;2022-07-01T09:32:19;27.30;53.70
13198;DHT22;6664;52.514;13.440;2022-07-01T09:34:54;26.10;56.70
13198;DHT22;6664;52.514;13.440;2022-07-01T09:37:24;24.80;62.70
13198;DHT22;6664;52.514;13.440;2022-07-01T09:39:56;24.30;67.30
13198;DHT22;6664;52.514;13.440;2022-07-01T09:42:25;23.90;70.50
13198;DHT22;6664;52.514;13.440;2022-07-01T09:47:48;24.30;68.30
13198;DHT22;6664;52.514;13.440;2022-07-01T09:50:15;23.90;67.20
13198;DHT22;6664;52.514;13.440;2022-07-01T09:52:44;23.10;71.30
13198;DHT22;6664;52.514;13.440;2022-07-01T09:55:12;22.70;75.00
13198;DHT22;6664;52.514;13.440;2022-07-01T09:57:41;23.10;72.60
13198;DHT22;6664;52.514;13.440;2022-07-01T10:00:08;22.40;73.80
13198;DHT22;6664;52.514;13.440;2022-07-01T10:02:35;22.50;75.00
13198;DHT22;6664;52.514;13.440;2022-07-01T10:05:13;22.50;73.90
13198;DHT22;6664;52.514;13.440;2022-07-01T10:08:08;22.10;75.60
13198;DHT22;6664;52.514;13.440;2022-07-01T10:13:07;22.00;78.70
13198;DHT22;6664;52.514;13.440;2022-07-01T10:15:36;22.10;76.80
13198;DHT22;6664;52.514;13.440;2022-07-01T10:18:19;21.80;78.20
13198;DHT22;6664;52.514;13.440;2022-07-01T10:20:47;22.00;78.70
13198;DHT22;6664;52.514;13.440;2022-07-01T10:23:15;21.40;81.00
13198;DHT22;6664;52.514;13.440;2022-07-01T10:25:51;21.30;83.60
13198;DHT22;6664;52.514;13.440;2022-07-01T10:28:26;21.10;87.20
13198;DHT22;6664;52.514;13.440;2022-07-01T10:31:04;21.30;88.30
13198;DHT22;6664;52.514;13.440;2022-07-01T10:44:11;20.70;91.00
13198;DHT22;6664;52.514;13.440;2022-07-01T10:46:43;20.50;93.50
13198;DHT22;6664;52.514;13.440;2022-07-01T10:49:19;20.40;93.60
13198;DHT22;6664;52.514;13.440;2022-07-01T10:51:52;20.30;94.60
13198;DHT22;6664;52.514;13.440;2022-07-01T10:59:52;20.30;96.90
13198;DHT22;6664;52.514;13.440;2022-07-01T11:02:23;20.10;96.30
13198;DHT22;6664;52.514;13.440;2022-07-01T11:04:52;19.80;97.60
13198;DHT22;6664;52.514;13.440;2022-07-01T11:07:24;19.50;99.60
13198;DHT22;6664;52.514;13.440;2022-07-01T11:09:54;19.50;99.90
13198;DHT22;6664;52.514;13.440;2022-07-01T11:12:22;19.40;99.50
13198;DHT22;6664;52.514;13.440;2022-07-01T11:14:56;19.30;99.90
13198;DHT22;6664;52.514;13.440;2022-07-01T11:17:26;19.10;99.90
13198;DHT22;6664;52.514;13.440;2022-07-01T11:19:54;19.00;99.90
13198;DHT22;6664;52.514;13.440;2022-07-01T11:22:28;19.10;99.90
13198;DHT22;6664;52.514;13.440;2022-07-01T11:25:01;19.10;99.90
13198;DHT22;6664;52.514;13.440;2022-07-01T11:27:29;19.00;99.90
13198;DHT22;6664;52.514;13.440;2022-07-01T11:30:02;19.20;99.90
13198;DHT22;6664;52.514;13.440;2022-07-01T11:32:34;19.00;99.90
13198;DHT22;6664;52.514;13.440;2022-07-01T11:35:03;19.10;99.90
13198;DHT22;6664;52.514;13.440;2022-07-01T11:37:50;18.80;99.90
13198;DHT22;6664;52.514;13.440;2022-07-01T11:40:36;18.90;99.90
13198;DHT22;6664;52.514;13.440;2022-07-01T11:43:22;18.90;99.90
13198;DHT22;6664;52.514;13.440;2022-07-01T11:45:53;18.90;99.90
13198;DHT22;6664;52.514;13.440;2022-07-01T11:48:40;19.40;99.90
13198;DHT22;6664;52.514;13.440;2022-07-01T11:51:13;19.90;99.90
13198;DHT22;6664;52.514;13.440;2022-07-01T11:53:45;19.30;99.90
13198;DHT22;6664;52.514;13.440;2022-07-01T11:56:13;19.60;99.90
13198;DHT22;6664;52.514;13.440;2022-07-01T11:58:51;19.50;99.90
13198;DHT22;6664;52.514;13.440;2022-07-01T12:01:32;19.10;99.90
13198;DHT22;6664;52.514;13.440;2022-07-01T12:04:03;18.90;99.90
13198;DHT22;6664;52.514;13.440;2022-07-01T12:06:31;18.70;99.90
13198;DHT22;6664;52.514;13.440;2022-07-01T12:09:03;18.70;99.90
13198;DHT22;6664;52.514;13.440;2022-07-01T12:11:30;18.90;99.90
13198;DHT22;6664;52.514;13.440;2022-07-01T12:14:04;19.60;99.90
13198;DHT22;6664;52.514;13.440;2022-07-01T12:16:58;19.50;99.90
13198;DHT22;6664;52.514;13.440;2022-07-01T12:19:47;21.10;96.00
13198;DHT22;6664;52.514;13.440;2022-07-01T12:22:23;21.00;93.70
13198;DHT22;6664;52.514;13.440;2022-07-01T12:25:08;21.00;93.90
13198;DHT22;6664;52.514;13.440;2022-07-01T12:27:38;21.30;92.00
13198;DHT22;6664;52.514;13.440;2022-07-01T12:30:07;21.00;90.60
13198;DHT22;6664;52.514;13.440;2022-07-01T12:32:36;20.40;93.60
13198;DHT22;6664;52.514;13.440;2022-07-01T12:35:05;20.40;93.60
13198;DHT22;6664;52.514;13.440;2022-07-01T12:37:55;20.30;95.60
13198;DHT22;6664;52.514;13.440;2022-07-01T12:40:24;20.40;96.80
13198;DHT22;6664;52.514;13.440;2022-07-01T12:42:54;20.80;93.60
13198;DHT22;6664;52.514;13.440;2022-07-01T12:45:25;20.90;91.40
13198;DHT22;6664;52.514;13.440;2022-07-01T12:47:57;20.70;91.30
13198;DHT22;6664;52.514;13.440;2022-07-01T12:50:25;20.60;92.40
13198;DHT22;6664;52.514;13.440;2022-07-01T12:53:10;20.60;92.60
13198;DHT22;6664;52.514;13.440;2022-07-01T12:55:39;21.10;91.40
13198;DHT22;6664;52.514;13.440;2022-07-01T12:58:09;21.20;88.30
13198;DHT22;6664;52.514;13.440;2022-07-01T13:00:38;20.70;88.30
13198;DHT22;6664;52.514;13.440;2022-07-01T13:03:09;20.10;91.40
13198;DHT22;6664;52.514;13.440;2022-07-01T13:05:38;20.00;93.30
13198;DHT22;6664;52.514;13.440;2022-07-01T13:08:11;20.20;94.40
13198;DHT22;6664;52.514;13.440;2022-07-01T13:10:40;20.20;93.80
13198;DHT22;6664;52.514;13.440;2022-07-01T13:13:13;20.00;94.20
13198;DHT22;6664;52.514;13.440;2022-07-01T13:15:44;20.00;94.30
13198;DHT22;6664;52.514;13.440;2022-07-01T13:18:11;19.60;96.10
13198;DHT22;6664;52.514;13.440;2022-07-01T13:20:42;19.40;97.40
13198;DHT22;6664;52.514;13.440;2022-07-01T13:23:09;19.50;97.50
13198;DHT22;6664;52.514;13.440;2022-07-01T13:25:39;19.30;98.60
13198;DHT22;6664;52.514;13.440;2022-07-01T13:28:08;19.10;99.90
13198;DHT22;6664;52.514;13.440;2022-07-01T13:30:35;19.10;99.90
13198;DHT22;6664;52.514;13.440;2022-07-01T13:33:07;19.20;99.90
13198;DHT22;6664;52.514;13.440;2022-07-01T13:35:38;19.20;99.90
13198;DHT22;6664;52.514;13.440;2022-07-01T13:38:08;19.20;99.90
13198;DHT22;6664;52.514;13.440;2022-07-01T13:40:35;19.20;99.90
13198;DHT22;6664;52.514;13.440;2022-07-01T13:43:01;19.00;99.90
13198;DHT22;6664;52.514;13.440;2022-07-01T13:45:31;19.00;99.90
13198;DHT22;6664;52.514;13.440;2022-07-01T13:48:02;19.00;99.90
13198;DHT22;6664;52.514;13.440;2022-07-01T13:50:29;18.80;99.90
13198;DHT22;6664;52.514;13.440;2022-07-01T13:52:56;18.80;99.90
13198;DHT22;6664;52.514;13.440;2022-07-01T13:55:23;18.70;99.90
13198;DHT22;6664;52.514;13.440;2022-07-01T13:57:52;18.50;99.90
13198;DHT22;6664;52.514;13.440;2022-07-01T14:00:19;18.50;99.90
13198;DHT22;6664;52.514;13.440;2022-07-01T14:02:46;18.50;99.90
13198;DHT22;6664;52.514;13.440;2022-07-01T14:05:13;18.50;99.90
13198;DHT22;6664;52.514;13.440;2022-07-01T14:07:40;18.50;99.90
13198;DHT22;6664;52.514;13.440;2022-07-01T14:10:07;18.40;99.90
13198;DHT22;6664;52.514;13.440;2022-07-01T14:12:34;18.40;99.90
13198;DHT22;6664;52.514;13.440;2022-07-01T14:15:01;18.40;99.90
13198;DHT22;6664;52.514;13.440;2022-07-01T14:17:28;18.40;99.90
13198;DHT22;6664;52.514;13.440;2022-07-01T14:19:55;18.20;99.90
13198;DHT22;6664;52.514;13.440;2022-07-01T14:22:24;18.30;99.90
13198;DHT22;6664;52.514;13.440;2022-07-01T14:24:52;18.20;99.90
13198;DHT22;6664;52.514;13.440;2022-07-01T14:27:19;18.10;99.90
13198;DHT22;6664;52.514;13.440;2022-07-01T14:29:46;18.00;99.90
13198;DHT22;6664;52.514;13.440;2022-07-01T14:32:22;18.00;99.90
13198;DHT22;6664;52.514;13.440;2022-07-01T14:34:54;18.00;99.90
13198;DHT22;6664;52.514;13.440;2022-07-01T14:37:27;18.10;99.90
13198;DHT22;6664;52.514;13.440;2022-07-01T14:39:56;18.30;99.90
13198;DHT22;6664;52.514;13.440;2022-07-01T14:42:27;18.40;99.90
13198;DHT22;6664;52.514;13.440;2022-07-01T14:44:55;18.50;99.90
13198;DHT22;6664;52.514;13.440;2022-07-01T14:47:24;18.60;99.90
13198;DHT22;6664;52.514;13.440;2022-07-01T14:49:52;18.30;99.90
13198;DHT22;6664;52.514;13.440;2022-07-01T14:52:23;18.20;99.90
13198;DHT22;6664;52.514;13.440;2022-07-01T14:54:51;18.20;99.90
13198;DHT22;6664;52.514;13.440;2022-07-01T14:57:19;18.10;99.90
13198;DHT22;6664;52.514;13.440;2022-07-01T14:59:46;18.10;99.90
13198;DHT22;6664;52.514;13.440;2022-07-01T15:02:13;18.00;99.90
13198;DHT22;6664;52.514;13.440;2022-07-01T15:04:43;18.00;99.90
13198;DHT22;6664;52.514;13.440;2022-07-01T15:07:13;18.00;99.90
13198;DHT22;6664;52.514;13.440;2022-07-01T15:09:41;17.90;99.90
13198;DHT22;6664;52.514;13.440;2022-07-01T15:12:08;17.80;99.90
13198;DHT22;6664;52.514;13.440;2022-07-01T15:14:35;17.80;99.90
13198;DHT22;6664;52.514;13.440;2022-07-01T15:17:02;17.80;99.90
13198;DHT22;6664;52.514;13.440;2022-07-01T15:19:29;17.70;99.90
13198;DHT22;6664;52.514;13.440;2022-07-01T15:21:57;17.70;99.90
13198;DHT22;6664;52.514;13.440;2022-07-01T15:24:26;17.60;99.90
13198;DHT22;6664;52.514;13.440;2022-07-01T15:26:53;17.60;99.90
13198;DHT22;6664;52.514;13.440;2022-07-01T15:29:20;17.50;99.90
13198;DHT22;6664;52.514;13.440;2022-07-01T15:31:48;17.60;99.90
13198;DHT22;6664;52.514;13.440;2022-07-01T15:34:17;17.60;99.90
13198;DHT22;6664;52.514;13.440;2022-07-01T15:36:44;17.60;99.90
13198;DHT22;6664;52.514;13.440;2022-07-01T15:39:11;17.60;99.90
13198;DHT22;6664;52.514;13.440;2022-07-01T15:41:39;17.60;99.90
13198;DHT22;6664;52.514;13.440;2022-07-01T15:44:07;17.50;99.90
13198;DHT22;6664;52.514;13.440;2022-07-01T15:46:36;17.40;99.90
13198;DHT22;6664;52.514;13.440;2022-07-01T15:49:07;17.40;99.90
13198;DHT22;6664;52.514;13.440;2022-07-01T15:51:35;17.50;99.90
13198;DHT22;6664;52.514;13.440;2022-07-01T15:54:04;17.60;99.90
13198;DHT22;6664;52.514;13.440;2022-07-01T15:56:33;17.50;99.90
13198;DHT22;6664;52.514;13.440;2022-07-01T15:59:02;17.50;99.90
13198;DHT22;6664;52.514;13.440;2022-07-01T16:01:31;17.70;99.90
13198;DHT22;6664;52.514;13.440;2022-07-01T16:04:01;17.70;99.90
13198;DHT22;6664;52.514;13.440;2022-07-01T16:06:28;17.90;99.90
13198;DHT22;6664;52.514;13.440;2022-07-01T16:08:57;17.90;99.90